Time;durP1;ratioP1;P1;durP2;ratioP2;P2;SDS_P1;SDS_P2;PMS_P1;PMS_P2;Temp;Humidity;BMP_temperature;BMP_pressure;BME280_temperature;BME280_humidity;BME280_pressure;Samples;Min_cycle;Max_cycle;Signal;HPM_P1;HPM_P2
2022/04/19 00:01:24;;;;;;;7.93;7.10;;;5.80;99.90;;;;;;5101208;28;20201;-78
2022/04/19 00:03:51;;;;;;;7.97;7.27;;;5.80;99.90;;;;;;5102281;28;20224;-78
2022/04/19 00:06:20;;;;;;;6.80;6.20;;;5.70;99.90;;;;;;5089630;28;20198;-78
2022/04/19 00:08:48;;;;;;;6.77;6.07;;;5.70;99.90;;;;;;5092152;28;20218;-78
2022/04/19 00:11:15;;;;;;;6.53;5.93;;;5.70;99.90;;;;;;5099550;28;20194;-78
2022/04/19 00:13:41;;;;;;;7.03;6.40;;;5.70;99.90;;;;;;5095689;28;20197;-78
2022/04/19 00:16:09;;;;;;;6.90;6.30;;;5.60;99.90;;;;;;5103470;28;20654;-78
2022/04/19 00:18:35;;;;;;;7.40;6.70;;;5.60;99.90;;;;;;5085308;28;20646;-78
2022/04/19 00:21:03;;;;;;;7.77;6.63;;;5.60;99.90;;;;;;5089977;28;20197;-79
2022/04/19 00:23:31;;;;;;;6.70;6.10;;;5.60;99.90;;;;;;5102208;28;20221;-77
2022/04/19 00:25:58;;;;;;;6.37;5.87;;;5.60;99.90;;;;;;5100820;28;20193;-79
2022/04/19 00:28:26;;;;;;;6.30;5.70;;;5.60;99.90;;;;;;5096684;28;20315;-78
2022/04/19 00:30:53;;;;;;;6.37;5.67;;;5.50;99.90;;;;;;5096789;28;20204;-78
2022/04/19 00:33:20;;;;;;;7.10;6.40;;;5.50;99.90;;;;;;5101572;28;20193;-79
2022/04/19 00:35:47;;;;;;;7.50;6.53;;;5.40;99.90;;;;;;5096311;28;20546;-79
2022/04/19 00:38:14;;;;;;;7.47;6.77;;;5.40;99.90;;;;;;5094673;28;20249;-78
2022/04/19 00:40:42;;;;;;;7.80;7.10;;;5.30;99.90;;;;;;5093381;28;20224;-78
2022/04/19 00:43:11;;;;;;;7.23;6.53;;;5.20;99.90;;;;;;5094151;28;20590;-78
2022/04/19 00:45:38;;;;;;;7.50;6.80;;;5.20;99.90;;;;;;5094564;28;20200;-77
2022/04/19 00:48:07;;;;;;;7.93;7.13;;;5.20;99.90;;;;;;5093844;28;20236;-78
2022/04/19 00:50:35;;;;;;;7.53;6.83;;;5.10;99.90;;;;;;5110633;28;20278;-78
2022/04/19 00:53:04;;;;;;;8.30;7.53;;;5.10;99.90;;;;;;5105292;28;20714;-78
2022/04/19 00:55:32;;;;;;;8.27;7.57;;;5.10;99.90;;;;;;5105157;28;20197;-78
2022/04/19 00:58:00;;;;;;;8.77;7.77;;;5.00;99.90;;;;;;5097302;28;20205;-77
2022/04/19 01:00:29;;;;;;;7.60;7.00;;;4.90;99.90;;;;;;5100334;28;20314;-78
2022/04/19 01:03:02;;;;;;;7.90;7.20;;;4.90;99.90;;;;;;5082506;28;20216;-78
2022/04/19 01:05:29;;;;;;;7.43;6.83;;;4.90;99.90;;;;;;5084911;28;20225;-78
2022/04/19 01:07:57;;;;;;;7.40;6.70;;;4.80;99.90;;;;;;5087529;28;20221;-78
2022/04/19 01:10:30;;;;;;;7.60;6.90;;;4.80;99.90;;;;;;5093135;28;20194;-78
2022/04/19 01:15:48;;;;;;;5.67;5.17;;;4.60;99.90;;;;;;5089127;28;20250;-79
2022/04/19 01:18:20;;;;;;;8.00;7.30;;;4.60;99.90;;;;;;5086291;28;20217;-78
2022/04/19 01:20:49;;;;;;;8.20;7.40;;;4.60;99.90;;;;;;5095631;28;20276;-78
2022/04/19 01:23:21;;;;;;;7.23;6.63;;;4.60;99.90;;;;;;5101338;28;20262;-78
2022/04/19 01:25:48;;;;;;;6.77;6.17;;;4.60;99.90;;;;;;5084710;28;20197;-77
2022/04/19 01:28:17;;;;;;;7.13;5.70;;;4.60;99.90;;;;;;5087943;28;20267;-77
2022/04/19 01:30:44;;;;;;;7.33;6.17;;;4.50;99.90;;;;;;5090449;28;20194;-78
2022/04/19 01:33:14;;;;;;;7.00;6.30;;;4.50;99.90;;;;;;5099093;28;20190;-78
2022/04/19 01:35:42;;;;;;;7.50;6.80;;;4.50;99.90;;;;;;5092365;28;20659;-77
2022/04/19 01:38:12;;;;;;;7.17;6.57;;;4.50;99.90;;;;;;5086975;28;20357;-79
2022/04/19 01:40:42;;;;;;;7.80;7.00;;;4.50;99.90;;;;;;5095392;28;20194;-78
2022/04/19 01:43:13;;;;;;;7.20;6.60;;;4.50;99.90;;;;;;5102592;28;20585;-78
2022/04/19 01:45:53;;;;;;;7.23;6.57;;;4.50;99.90;;;;;;5100895;28;20200;-79
2022/04/19 01:48:23;;;;;;;6.90;6.20;;;4.50;99.90;;;;;;5106709;28;20213;-79
2022/04/19 01:50:50;;;;;;;7.83;6.60;;;4.40;99.90;;;;;;5106134;28;20474;-79
2022/04/19 01:53:17;;;;;;;6.83;6.13;;;4.40;99.90;;;;;;5105481;28;20235;-79
2022/04/19 01:55:46;;;;;;;6.77;6.07;;;4.30;99.90;;;;;;5086560;28;20638;-79
2022/04/19 01:58:46;;;;;;;7.57;6.53;;;4.40;99.90;;;;;;5082947;28;20209;-78
2022/04/19 02:01:15;;;;;;;7.37;6.67;;;4.40;99.90;;;;;;5105189;28;20666;-77
2022/04/19 02:03:42;;;;;;;7.23;6.63;;;4.40;99.90;;;;;;5094719;28;20217;-79
2022/04/19 02:06:14;;;;;;;7.90;7.10;;;4.40;99.90;;;;;;5102199;28;20666;-78
2022/04/19 02:08:43;;;;;;;7.27;6.57;;;4.50;99.90;;;;;;5098274;28;20240;-78
2022/04/19 02:11:18;;;;;;;7.97;7.17;;;4.60;99.90;;;;;;5104938;28;20192;-78
2022/04/19 02:13:56;;;;;;;7.97;7.27;;;4.60;99.90;;;;;;5105583;28;20281;-78
2022/04/19 02:16:31;;;;;;;8.33;7.53;;;4.60;99.90;;;;;;5103312;28;20549;-79
2022/04/19 02:18:58;;;;;;;7.97;7.17;;;4.60;99.90;;;;;;5087416;28;20724;-78
2022/04/19 02:21:25;;;;;;;7.20;6.50;;;4.60;99.90;;;;;;5091352;28;20685;-78
2022/04/19 02:23:52;;;;;;;8.03;7.27;;;4.50;99.90;;;;;;5085135;28;20214;-79
2022/04/19 02:26:23;;;;;;;7.63;6.90;;;4.50;99.90;;;;;;5091712;28;20586;-78
2022/04/19 02:28:51;;;;;;;7.20;6.50;;;4.40;99.90;;;;;;5099574;28;20589;-79
2022/04/19 02:31:27;;;;;;;8.00;7.10;;;4.40;99.90;;;;;;5104289;28;20198;-79
2022/04/19 02:33:58;;;;;;;7.47;6.87;;;4.40;99.90;;;;;;5088569;28;20189;-78
2022/04/19 02:36:25;;;;;;;7.70;6.70;;;4.30;99.90;;;;;;5088928;28;20636;-78
2022/04/19 02:38:53;;;;;;;8.07;7.27;;;4.30;99.90;;;;;;5091038;28;20270;-76
2022/04/19 02:41:22;;;;;;;8.67;6.83;;;4.30;99.90;;;;;;5090402;28;20193;-79
2022/04/19 02:43:54;;;;;;;7.30;6.60;;;4.30;99.90;;;;;;5093926;28;20205;-78
2022/04/19 02:46:22;;;;;;;7.03;6.33;;;4.20;99.90;;;;;;5090210;28;20630;-80
2022/04/19 02:48:54;;;;;;;7.00;6.30;;;4.20;99.90;;;;;;5090427;28;20244;-76
2022/04/19 02:51:21;;;;;;;7.83;7.07;;;4.10;99.90;;;;;;5089897;28;20206;-78
2022/04/19 02:53:48;;;;;;;8.00;7.30;;;4.10;99.90;;;;;;5091381;28;20217;-80
2022/04/19 02:56:15;;;;;;;8.17;7.37;;;4.10;99.90;;;;;;5107345;28;20197;-80
2022/04/19 02:58:45;;;;;;;9.90;7.40;;;4.00;99.90;;;;;;5095175;28;20722;-78
2022/04/19 03:01:12;;;;;;;7.70;7.00;;;4.00;99.90;;;;;;5087167;28;20193;-80
2022/04/19 03:03:39;;;;;;;7.53;6.83;;;4.00;99.90;;;;;;5091928;28;20223;-78
2022/04/19 03:06:08;;;;;;;7.77;6.97;;;3.90;99.90;;;;;;5106592;28;20193;-79
2022/04/19 03:08:35;;;;;;;8.03;7.23;;;4.00;99.90;;;;;;5093614;28;20270;-81
2022/04/19 03:11:03;;;;;;;7.87;7.17;;;4.00;99.90;;;;;;5112330;28;20208;-85
2022/04/19 03:13:31;;;;;;;8.00;7.20;;;4.00;99.90;;;;;;5095620;28;20193;-80
2022/04/19 03:16:00;;;;;;;7.57;6.80;;;4.00;99.90;;;;;;5096195;28;20190;-80
2022/04/19 03:18:28;;;;;;;8.03;7.33;;;4.00;99.90;;;;;;5100446;28;20810;-80
2022/04/19 03:20:55;;;;;;;8.13;7.40;;;3.90;99.90;;;;;;5096754;28;20201;-79
2022/04/19 03:28:56;;;;;;;7.30;6.63;;;4.00;99.90;;;;;;5100948;28;20217;-80
2022/04/19 03:31:24;;;;;;;7.97;7.17;;;4.00;99.90;;;;;;5085525;28;20248;-80
2022/04/19 03:33:53;;;;;;;7.80;7.20;;;4.00;99.90;;;;;;5090438;28;20240;-79
2022/04/19 03:36:22;;;;;;;7.43;6.73;;;3.90;99.90;;;;;;5100923;28;20240;-79
2022/04/19 03:38:50;;;;;;;8.23;6.80;;;3.90;99.90;;;;;;5083390;28;20226;-80
2022/04/19 03:41:17;;;;;;;7.20;6.63;;;3.90;99.90;;;;;;5100301;28;20197;-81
2022/04/19 03:43:44;;;;;;;7.67;7.00;;;3.90;99.90;;;;;;5095926;28;20300;-80
2022/04/19 03:46:11;;;;;;;8.30;7.53;;;3.90;99.90;;;;;;5086783;28;20493;-78
2022/04/19 03:48:40;;;;;;;7.93;7.10;;;4.00;99.90;;;;;;5084104;28;20516;-80
2022/04/19 03:51:07;;;;;;;7.30;6.70;;;3.90;99.90;;;;;;5088685;28;20201;-78
2022/04/19 03:53:34;;;;;;;7.20;6.53;;;3.90;99.90;;;;;;5099902;28;20456;-80
2022/04/19 03:56:03;;;;;;;7.40;6.80;;;3.90;99.90;;;;;;5098307;28;20541;-80
2022/04/19 03:58:32;;;;;;;8.50;7.33;;;3.80;99.90;;;;;;5100639;28;20214;-80
2022/04/19 04:01:01;;;;;;;8.83;7.97;;;3.80;99.90;;;;;;5092527;28;20535;-80
2022/04/19 04:03:29;;;;;;;7.83;7.17;;;3.80;99.90;;;;;;5093251;28;20201;-80
2022/04/19 04:05:58;;;;;;;8.10;7.30;;;3.80;99.90;;;;;;5086334;28;20197;-79
2022/04/19 04:08:25;;;;;;;8.23;7.43;;;3.80;99.90;;;;;;5101266;28;20209;-79
2022/04/19 04:10:55;;;;;;;8.23;7.13;;;3.80;99.90;;;;;;5086919;28;20194;-79
2022/04/19 04:13:26;;;;;;;8.80;7.13;;;3.70;99.90;;;;;;5091150;28;20236;-78
2022/04/19 04:15:53;;;;;;;7.60;6.83;;;3.60;99.90;;;;;;5082948;28;20500;-79
2022/04/19 04:18:20;;;;;;;8.63;7.73;;;3.60;99.90;;;;;;5099463;28;20751;-78
2022/04/19 04:20:48;;;;;;;7.83;7.03;;;3.60;99.90;;;;;;5086128;28;20451;-79
2022/04/19 04:23:17;;;;;;;8.03;7.23;;;3.70;99.90;;;;;;5102961;28;20459;-79
2022/04/19 04:25:45;;;;;;;7.67;7.00;;;3.60;99.90;;;;;;5086895;28;20508;-80
2022/04/19 04:28:15;;;;;;;7.83;7.13;;;3.50;99.90;;;;;;5094996;28;20219;-78
2022/04/19 04:30:46;;;;;;;8.03;7.23;;;3.50;99.90;;;;;;5094187;28;20443;-79
2022/04/19 04:33:14;;;;;;;12.37;7.20;;;3.50;99.90;;;;;;5086626;28;20447;-80
2022/04/19 04:35:42;;;;;;;7.80;7.10;;;3.50;99.90;;;;;;5089923;28;20283;-77
2022/04/19 04:38:10;;;;;;;7.37;6.77;;;3.60;99.90;;;;;;5086932;28;20328;-79
2022/04/19 04:40:40;;;;;;;7.70;7.00;;;3.60;99.90;;;;;;5082567;28;20698;-80
2022/04/19 04:43:11;;;;;;;7.50;6.80;;;3.60;99.90;;;;;;5099073;28;20899;-80
2022/04/19 04:45:38;;;;;;;7.63;6.90;;;3.70;99.90;;;;;;5084048;28;20217;-80
2022/04/19 04:50:51;;;;;;;7.17;6.50;;;3.80;99.90;;;;;;5099166;28;20193;-78
2022/04/19 04:53:18;;;;;;;7.93;6.70;;;3.90;99.90;;;;;;5090031;28;20583;-78
2022/04/19 04:56:02;;;;;;;8.70;7.80;;;4.00;99.90;;;;;;5081866;28;20713;-80
2022/04/19 04:58:29;;;;;;;9.63;7.40;;;4.00;99.90;;;;;;5084441;28;20271;-79
2022/04/19 05:00:56;;;;;;;5.83;4.70;;;4.00;99.90;;;;;;5099155;28;20243;-78
2022/04/19 05:03:23;;;;;;;5.43;4.30;;;4.00;99.90;;;;;;5083753;28;20618;-79
2022/04/19 05:05:51;;;;;;;6.73;5.23;;;4.10;99.90;;;;;;5094122;28;20216;-78
2022/04/19 05:08:18;;;;;;;9.00;4.83;;;4.20;99.90;;;;;;5088804;28;20258;-78
2022/04/19 05:10:46;;;;;;;5.60;4.73;;;4.20;99.90;;;;;;5095455;28;20704;-78
2022/04/19 05:13:19;;;;;;;8.63;5.53;;;4.20;99.90;;;;;;5106060;28;20193;-78
2022/04/19 05:15:47;;;;;;;8.10;4.77;;;4.20;99.90;;;;;;5087395;28;20194;-79
2022/04/19 05:18:15;;;;;;;8.37;4.90;;;4.30;99.90;;;;;;5103210;28;20216;-79
2022/04/19 05:20:45;;;;;;;6.93;4.83;;;4.40;99.90;;;;;;5098703;28;20284;-78
2022/04/19 05:23:12;;;;;;;6.93;4.83;;;4.50;99.90;;;;;;5097552;28;20565;-79
2022/04/19 05:25:40;;;;;;;5.90;4.77;;;4.60;99.90;;;;;;5090545;28;20221;-80
2022/04/19 05:28:07;;;;;;;5.50;4.60;;;4.70;99.90;;;;;;5102607;28;20706;-78
2022/04/19 05:30:36;;;;;;;8.67;5.47;;;4.90;99.90;;;;;;5103111;28;20194;-79
2022/04/19 05:33:05;;;;;;;5.80;4.60;;;5.10;99.90;;;;;;5090716;28;20213;-78
2022/04/19 05:35:32;;;;;;;5.83;4.57;;;5.50;99.90;;;;;;5088929;28;20243;-79
2022/04/19 05:37:59;;;;;;;5.47;4.87;;;5.90;99.90;;;;;;5092985;28;20275;-79
2022/04/19 05:40:30;;;;;;;5.80;4.87;;;6.30;99.90;;;;;;5102685;28;20197;-79
2022/04/19 05:42:58;;;;;;;6.47;5.87;;;6.70;99.90;;;;;;5100908;28;20201;-78
2022/04/19 05:45:25;;;;;;;8.17;7.57;;;7.10;99.90;;;;;;5105495;28;20282;-79
2022/04/19 05:47:54;;;;;;;6.40;5.80;;;7.50;99.90;;;;;;5105899;28;20265;-78
2022/04/19 05:50:23;;;;;;;6.93;6.23;;;7.80;99.90;;;;;;5088645;28;20207;-80
2022/04/19 05:52:50;;;;;;;6.97;6.27;;;7.90;99.90;;;;;;5091525;28;20200;-79
2022/04/19 05:55:18;;;;;;;5.90;4.50;;;8.10;99.90;;;;;;5095923;28;20199;-80
2022/04/19 05:57:45;;;;;;;6.47;5.97;;;8.10;99.90;;;;;;5085745;28;20223;-79
2022/04/19 06:00:13;;;;;;;6.80;6.20;;;8.30;99.90;;;;;;5102037;28;20564;-78
2022/04/19 06:05:40;;;;;;;6.83;6.10;;;8.60;99.90;;;;;;5096137;28;20194;-79
2022/04/19 06:08:08;;;;;;;5.30;4.80;;;8.80;99.90;;;;;;5089792;28;20228;-79
2022/04/19 06:10:35;;;;;;;6.77;6.20;;;8.90;99.90;;;;;;5099328;28;20199;-79
2022/04/19 06:13:02;;;;;;;6.27;5.23;;;8.80;99.90;;;;;;5094699;28;20196;-79
2022/04/19 06:15:31;;;;;;;5.97;5.37;;;8.90;99.90;;;;;;5107559;28;20751;-79
2022/04/19 06:17:58;;;;;;;5.97;5.40;;;9.10;99.90;;;;;;5095342;28;20218;-80
2022/04/19 06:20:50;;;;;;;5.53;4.83;;;9.40;99.90;;;;;;5108338;28;20555;-78
2022/04/19 06:23:17;;;;;;;6.30;4.77;;;9.50;99.90;;;;;;5091546;28;20196;-79
2022/04/19 06:25:44;;;;;;;5.03;4.53;;;9.70;99.90;;;;;;5097606;28;20308;-79
2022/04/19 06:28:11;;;;;;;4.83;4.43;;;9.90;99.90;;;;;;5105018;28;20209;-79
2022/04/19 06:31:08;;;;;;;6.23;5.20;;;10.00;99.90;;;;;;5097318;28;20285;-79
2022/04/19 06:33:35;;;;;;;5.60;5.10;;;10.30;99.90;;;;;;5113330;28;20197;-80
2022/04/19 06:36:05;;;;;;;5.23;4.60;;;10.30;99.90;;;;;;5105085;28;20194;-79
2022/04/19 06:38:34;;;;;;;4.70;4.20;;;10.50;99.90;;;;;;5092425;28;20241;-79
2022/04/19 06:41:02;;;;;;;4.10;3.70;;;10.50;99.90;;;;;;5084681;28;20194;-79
2022/04/19 06:43:32;;;;;;;4.70;4.17;;;10.50;99.90;;;;;;5104262;28;20196;-80
2022/04/19 06:46:12;;;;;;;5.13;4.67;;;10.40;99.90;;;;;;5092318;28;20194;-79
2022/04/19 06:48:42;;;;;;;5.37;4.23;;;10.50;99.90;;;;;;5095526;28;20230;-79
2022/04/19 06:51:10;;;;;;;6.37;4.47;;;10.50;99.90;;;;;;5100729;28;20189;-79
2022/04/19 06:53:37;;;;;;;6.20;5.53;;;10.30;99.90;;;;;;5087876;28;20202;-79
2022/04/19 06:56:12;;;;;;;5.13;4.43;;;10.30;99.90;;;;;;5105135;28;20189;-79
2022/04/19 06:58:40;;;;;;;4.73;4.23;;;10.40;99.90;;;;;;5085857;28;20218;-78
2022/04/19 07:01:07;;;;;;;4.70;4.00;;;10.40;99.90;;;;;;5091138;28;20232;-80
2022/04/19 07:03:35;;;;;;;5.43;3.80;;;10.50;99.90;;;;;;5100884;28;20244;-79
2022/04/19 07:06:22;;;;;;;4.33;3.83;;;10.50;99.90;;;;;;5103964;28;20225;-79
2022/04/19 07:08:49;;;;;;;4.80;3.90;;;10.40;99.90;;;;;;5086311;28;20597;-79
2022/04/19 07:11:16;;;;;;;6.03;4.30;;;10.40;99.90;;;;;;5100512;28;20204;-79
2022/04/19 07:13:54;;;;;;;6.23;4.00;;;10.30;99.90;;;;;;5098307;28;20606;-80
2022/04/19 07:16:41;;;;;;;8.57;3.97;;;10.50;99.90;;;;;;5104077;28;20238;-79
2022/04/19 07:19:08;;;;;;;7.50;4.73;;;10.80;99.90;;;;;;5104385;28;20219;-79
2022/04/19 07:27:09;;;;;;;8.13;4.57;;;11.70;99.90;;;;;;5047440;28;20196;-79
2022/04/19 07:29:36;;;;;;;6.70;5.10;;;12.30;99.90;;;;;;5081088;28;20199;-79
2022/04/19 07:32:04;;;;;;;4.90;4.40;;;13.00;99.90;;;;;;5094882;28;20595;-79
2022/04/19 07:35:01;;;;;;;5.33;4.83;;;13.60;99.90;;;;;;5097077;28;20218;-78
2022/04/19 07:37:33;;;;;;;5.77;3.80;;;14.10;99.90;;;;;;5100864;28;20221;-77
2022/04/19 07:40:01;;;;;;;5.00;3.70;;;14.70;99.90;;;;;;5098954;28;20243;-78
2022/04/19 07:42:28;;;;;;;6.30;4.30;;;15.30;99.90;;;;;;5101968;28;20199;-78
2022/04/19 07:44:56;;;;;;;4.80;3.53;;;15.90;99.90;;;;;;5095413;28;20218;-79
2022/04/19 07:47:23;;;;;;;6.23;3.93;;;16.20;99.90;;;;;;5086401;28;20257;-79
2022/04/19 07:49:52;;;;;;;5.70;3.93;;;16.30;99.90;;;;;;5098072;28;20214;-80
2022/04/19 07:52:20;;;;;;;5.17;4.50;;;16.60;99.90;;;;;;5093058;28;20519;-80
2022/04/19 07:54:48;;;;;;;4.27;3.37;;;17.10;99.90;;;;;;5086664;28;20224;-80
2022/04/19 07:57:19;;;;;;;4.97;3.80;;;17.30;99.50;;;;;;5099392;28;20193;-81
2022/04/19 07:59:46;;;;;;;4.53;4.03;;;17.20;99.20;;;;;;5096392;28;20197;-80
2022/04/19 08:02:14;;;;;;;5.93;4.37;;;17.30;98.70;;;;;;5087926;28;20661;-78
2022/04/19 08:04:42;;;;;;;7.13;4.47;;;17.30;98.50;;;;;;5103160;28;20722;-79
2022/04/19 08:07:09;;;;;;;4.13;3.67;;;17.30;97.70;;;;;;5101878;28;20673;-80
2022/04/19 08:09:36;;;;;;;4.37;3.60;;;17.60;97.40;;;;;;5082863;28;20194;-80
2022/04/19 08:12:09;;;;;;;6.47;5.10;;;17.80;96.20;;;;;;5094809;28;20198;-80
2022/04/19 08:14:36;;;;;;;5.13;4.63;;;17.80;96.10;;;;;;5091292;28;20575;-79
2022/04/19 08:17:04;;;;;;;5.47;4.80;;;17.50;96.80;;;;;;5107170;28;20198;-80
2022/04/19 08:19:31;;;;;;;6.00;4.90;;;17.50;96.50;;;;;;5099901;28;20925;-79
2022/04/19 08:21:58;;;;;;;11.13;5.23;;;17.60;96.40;;;;;;5090633;28;20203;-79
2022/04/19 08:24:28;;;;;;;5.27;4.87;;;17.60;96.30;;;;;;5099173;28;20300;-79
2022/04/19 08:26:55;;;;;;;5.67;5.17;;;17.40;95.60;;;;;;5097062;28;20288;-80
2022/04/19 08:29:23;;;;;;;5.43;4.83;;;17.30;96.70;;;;;;5111100;28;20685;-79
2022/04/19 08:31:51;;;;;;;6.37;5.23;;;17.40;96.00;;;;;;5102676;28;20189;-79
2022/04/19 08:34:20;;;;;;;6.67;4.80;;;17.60;96.30;;;;;;5084739;28;20574;-79
2022/04/19 08:36:47;;;;;;;5.97;4.13;;;17.90;94.70;;;;;;5083017;28;20585;-80
2022/04/19 08:39:15;;;;;;;5.50;5.00;;;18.20;94.70;;;;;;5102920;28;20258;-80
2022/04/19 08:41:42;;;;;;;5.17;4.67;;;18.60;94.90;;;;;;5093338;28;20188;-80
2022/04/19 08:44:10;;;;;;;5.63;5.03;;;19.00;93.70;;;;;;5098082;28;20221;-80
2022/04/19 08:46:40;;;;;;;6.17;4.50;;;18.70;91.80;;;;;;5100344;28;20237;-79
2022/04/19 08:49:07;;;;;;;4.70;3.73;;;18.70;93.30;;;;;;5077890;28;20219;-80
2022/04/19 08:51:37;;;;;;;6.70;5.20;;;18.70;92.20;;;;;;5085209;28;20267;-80
2022/04/19 08:59:34;;;;;;;5.13;4.00;;;19.00;92.40;;;;;;5092953;28;20193;-80
2022/04/19 09:02:03;;;;;;;6.43;5.50;;;19.30;91.30;;;;;;5095823;28;20233;-80
2022/04/19 09:04:30;;;;;;;5.87;5.27;;;19.40;91.40;;;;;;5089862;28;20225;-80
2022/04/19 09:06:59;;;;;;;5.20;4.70;;;19.50;92.20;;;;;;5111119;28;20613;-79
2022/04/19 09:09:27;;;;;;;5.47;4.93;;;19.80;90.90;;;;;;5100783;28;20231;-80
2022/04/19 09:12:01;;;;;;;7.73;5.07;;;19.90;91.00;;;;;;5090200;28;20205;-80
2022/04/19 09:14:28;;;;;;;4.60;4.10;;;19.80;90.10;;;;;;5098809;28;20285;-80
2022/04/19 09:17:06;;;;;;;5.13;4.43;;;20.00;90.00;;;;;;5086647;28;20200;-80
2022/04/19 09:19:33;;;;;;;6.13;5.10;;;20.00;90.50;;;;;;5100958;28;20224;-80
2022/04/19 09:22:01;;;;;;;6.77;5.00;;;20.30;87.60;;;;;;5095735;28;20292;-80
2022/04/19 09:24:28;;;;;;;5.63;5.10;;;20.50;87.00;;;;;;5083941;28;20202;-79
2022/04/19 09:26:56;;;;;;;6.07;5.03;;;20.70;84.40;;;;;;5097126;28;20744;-79
2022/04/19 09:29:24;;;;;;;5.77;4.13;;;20.40;81.40;;;;;;5109383;28;20221;-79
2022/04/19 09:31:54;;;;;;;7.67;4.70;;;20.50;87.80;;;;;;5087378;28;20205;-79
2022/04/19 09:34:29;;;;;;;5.13;4.43;;;20.50;83.30;;;;;;5101896;28;20197;-80
2022/04/19 09:37:10;;;;;;;4.93;4.00;;;20.30;85.50;;;;;;5103448;28;20185;-80
2022/04/19 09:39:38;;;;;;;7.17;4.83;;;20.50;85.70;;;;;;5083108;28;20284;-80
2022/04/19 09:42:06;;;;;;;6.93;4.33;;;20.50;88.10;;;;;;5085205;28;20284;-80
2022/04/19 09:44:38;;;;;;;5.53;4.30;;;20.40;82.30;;;;;;5086984;28;20622;-80
2022/04/19 09:47:07;;;;;;;6.60;4.57;;;20.00;83.90;;;;;;5091960;28;20287;-78
2022/04/19 09:49:50;;;;;;;8.37;4.90;;;19.70;82.40;;;;;;5101822;28;20238;-80
2022/04/19 09:52:43;;;;;;;6.33;5.10;;;19.60;87.60;;;;;;5090007;28;20650;-80
2022/04/19 09:55:12;;;;;;;5.93;4.60;;;19.70;84.70;;;;;;5100245;28;20197;-80
2022/04/19 09:57:40;;;;;;;6.13;5.33;;;19.90;84.40;;;;;;5102626;28;20692;-80
2022/04/19 10:00:09;;;;;;;6.60;5.60;;;19.80;83.90;;;;;;5090485;28;20288;-79
2022/04/19 10:08:21;;;;;;;4.83;4.27;;;19.50;88.70;;;;;;5091549;28;20739;-80
2022/04/19 10:10:50;;;;;;;4.83;4.33;;;19.80;86.20;;;;;;5089985;28;20197;-80
2022/04/19 10:13:18;;;;;;;4.60;4.13;;;19.70;84.30;;;;;;5097225;28;20299;-80
2022/04/19 10:15:46;;;;;;;4.90;4.23;;;19.60;81.40;;;;;;5088657;28;20197;-80
2022/04/19 10:18:13;;;;;;;4.87;4.13;;;19.50;83.90;;;;;;5105074;28;20213;-80
2022/04/19 10:20:46;;;;;;;4.57;3.80;;;19.40;77.30;;;;;;5089000;28;20204;-80
2022/04/19 10:23:15;;;;;;;4.90;4.13;;;18.70;80.00;;;;;;5093362;28;20199;-80
2022/04/19 10:25:44;;;;;;;5.33;4.30;;;18.30;81.50;;;;;;5087458;28;20221;-80
2022/04/19 10:28:12;;;;;;;4.93;4.43;;;18.30;83.20;;;;;;5101474;28;20229;-80
2022/04/19 10:30:47;;;;;;;5.50;4.87;;;18.40;85.80;;;;;;5093688;28;20201;-80
2022/04/19 10:33:49;;;;;;;6.43;4.90;;;18.40;85.10;;;;;;5092935;28;20197;-78
2022/04/19 10:36:22;;;;;;;4.60;4.20;;;18.40;83.40;;;;;;5088310;28;20570;-80
2022/04/19 10:39:20;;;;;;;5.63;4.60;;;18.60;83.70;;;;;;5098156;28;20225;-79
2022/04/19 10:41:53;;;;;;;5.20;4.70;;;18.70;84.50;;;;;;5087818;28;20213;-80
2022/04/19 10:44:22;;;;;;;5.07;4.53;;;18.50;83.80;;;;;;5103848;28;20194;-79
2022/04/19 10:47:01;;;;;;;6.97;5.40;;;18.20;83.80;;;;;;5086893;28;20218;-79
2022/04/19 10:49:28;;;;;;;6.40;4.90;;;17.90;84.60;;;;;;5099719;28;20297;-78
2022/04/19 10:52:00;;;;;;;5.17;4.50;;;17.80;83.50;;;;;;5100842;28;20251;-80
2022/04/19 10:55:01;;;;;;;8.67;4.80;;;17.80;86.00;;;;;;5092582;28;20190;-79
2022/04/19 11:00:25;;;;;;;4.27;3.67;;;17.90;85.00;;;;;;5086535;28;20196;-80
2022/04/19 11:03:00;;;;;;;4.20;3.70;;;18.00;85.00;;;;;;5094342;28;20726;-78
2022/04/19 11:05:44;;;;;;;6.27;4.80;;;18.00;85.90;;;;;;5100820;28;20217;-79
2022/04/19 11:08:37;;;;;;;6.00;5.40;;;18.00;84.60;;;;;;5100580;28;20277;-80
2022/04/19 11:11:22;;;;;;;6.67;6.07;;;17.80;86.70;;;;;;5087804;28;20302;-79
2022/04/19 11:14:22;;;;;;;6.43;4.77;;;17.30;85.60;;;;;;5098558;28;20197;-79
2022/04/19 11:16:51;;;;;;;5.90;4.93;;;17.30;87.30;;;;;;5089293;28;20185;-79
2022/04/19 11:19:20;;;;;;;6.73;6.03;;;17.40;85.30;;;;;;5110796;28;20236;-80
2022/04/19 11:21:53;;;;;;;4.53;3.77;;;17.30;86.40;;;;;;5112653;28;20200;-79
2022/04/19 11:25:00;;;;;;;5.53;4.53;;;17.40;87.60;;;;;;5094940;28;20209;-79
2022/04/19 11:28:00;;;;;;;5.23;4.40;;;17.50;84.00;;;;;;5108844;28;20297;-80
2022/04/19 11:30:29;;;;;;;5.67;4.50;;;17.40;85.80;;;;;;5091496;28;20253;-80
2022/04/19 11:32:58;;;;;;;5.57;4.87;;;17.30;85.70;;;;;;5098131;28;20721;-78
2022/04/19 11:35:26;;;;;;;5.87;5.37;;;17.50;86.30;;;;;;5090364;28;20284;-79
2022/04/19 11:37:53;;;;;;;6.63;6.00;;;17.60;85.00;;;;;;5083153;28;20271;-79
2022/04/19 11:48:45;;;;;;;7.37;6.37;;;17.40;83.60;;;;;;5083883;28;20217;-79
2022/04/19 11:51:14;;;;;;;5.77;5.27;;;17.40;85.40;;;;;;5095144;28;20240;-80
2022/04/19 11:53:41;;;;;;;6.40;5.80;;;17.40;84.90;;;;;;5101063;28;20641;-78
2022/04/19 11:56:08;;;;;;;6.20;5.60;;;17.40;83.30;;;;;;5098818;28;20192;-80
2022/04/19 11:58:36;;;;;;;6.43;5.80;;;17.50;86.00;;;;;;5111798;28;20217;-80
2022/04/19 12:01:06;;;;;;;7.43;6.23;;;17.30;83.90;;;;;;5111608;28;20205;-80
2022/04/19 12:03:36;;;;;;;8.80;5.87;;;17.30;84.30;;;;;;5102347;28;20297;-79
2022/04/19 12:06:08;;;;;;;6.40;5.23;;;17.30;84.50;;;;;;5087838;28;20229;-80
2022/04/19 12:08:38;;;;;;;7.80;6.03;;;17.30;87.40;;;;;;5086081;28;20239;-80
2022/04/19 12:11:07;;;;;;;7.77;7.00;;;17.10;84.40;;;;;;5111985;28;20197;-80
2022/04/19 12:13:35;;;;;;;7.57;6.80;;;17.00;85.00;;;;;;5104008;28;20204;-79
2022/04/19 12:16:03;;;;;;;9.13;7.57;;;17.00;86.30;;;;;;5087483;28;20190;-79
2022/04/19 12:18:33;;;;;;;6.37;5.57;;;16.90;84.10;;;;;;5090047;28;20225;-79
2022/04/19 12:21:01;;;;;;;8.93;6.70;;;17.00;84.80;;;;;;5091276;28;20303;-78
2022/04/19 12:23:28;;;;;;;7.13;6.53;;;17.00;85.00;;;;;;5089778;28;20294;-79
2022/04/19 12:26:03;;;;;;;7.50;6.70;;;17.10;85.20;;;;;;5086164;28;20617;-78
2022/04/19 12:28:43;;;;;;;9.40;6.63;;;17.10;86.10;;;;;;5100718;28;20242;-79
2022/04/19 12:31:31;;;;;;;6.73;6.13;;;17.10;84.50;;;;;;5103276;28;20200;-80
2022/04/19 12:34:00;;;;;;;6.77;6.17;;;17.10;83.70;;;;;;5082764;28;20686;-79
2022/04/19 12:36:27;;;;;;;6.50;5.90;;;17.10;85.20;;;;;;5084727;28;20202;-80
2022/04/19 12:39:03;;;;;;;6.10;4.33;;;17.10;83.80;;;;;;5096605;28;21034;-78
2022/04/19 12:41:35;;;;;;;4.70;4.20;;;17.00;83.20;;;;;;5104279;28;20696;-79
2022/04/19 12:44:02;;;;;;;8.10;4.90;;;17.10;85.10;;;;;;5082158;28;20285;-79
2022/04/19 12:46:30;;;;;;;5.13;4.10;;;17.20;83.40;;;;;;5101358;28;20261;-79
2022/04/19 12:48:58;;;;;;;8.37;5.03;;;17.30;83.80;;;;;;5091280;28;20221;-77
2022/04/19 12:51:26;;;;;;;5.23;4.17;;;17.20;82.50;;;;;;5100540;28;20613;-79
2022/04/19 12:54:06;;;;;;;6.13;4.57;;;17.20;85.00;;;;;;5081786;28;20198;-80
2022/04/19 12:56:35;;;;;;;6.03;4.50;;;17.30;83.30;;;;;;5110889;28;20196;-78
2022/04/19 12:59:02;;;;;;;4.97;4.20;;;17.20;83.50;;;;;;5087255;28;20715;-79
2022/04/19 13:01:29;;;;;;;6.30;5.70;;;17.10;81.60;;;;;;5084335;28;20580;-79
2022/04/19 13:03:56;;;;;;;6.40;5.80;;;17.10;82.20;;;;;;5082160;28;20208;-80
2022/04/19 13:12:22;;;;;;;7.53;6.70;;;17.20;85.90;;;;;;5028042;28;20219;-79
2022/04/19 13:14:51;;;;;;;6.10;5.50;;;17.20;83.20;;;;;;5081288;28;20243;-78
2022/04/19 13:17:18;;;;;;;7.37;6.00;;;17.10;83.40;;;;;;5091804;28;20193;-80
2022/04/19 13:19:45;;;;;;;6.50;5.80;;;17.10;84.00;;;;;;5106360;28;20197;-77
2022/04/19 13:22:15;;;;;;;6.33;5.83;;;17.20;86.30;;;;;;5084900;28;20193;-79
2022/04/19 13:24:42;;;;;;;7.37;6.67;;;17.30;84.40;;;;;;5081915;28;20250;-79
2022/04/19 13:27:10;;;;;;;9.23;6.60;;;17.10;82.60;;;;;;5098033;28;20216;-79
2022/04/19 13:29:38;;;;;;;7.03;6.37;;;17.10;83.70;;;;;;5100038;28;20194;-79
2022/04/19 13:32:06;;;;;;;7.40;6.70;;;17.20;85.50;;;;;;5101856;28;20728;-79
2022/04/19 13:34:34;;;;;;;8.27;6.27;;;17.20;82.80;;;;;;5105054;28;20273;-80
2022/04/19 13:37:02;;;;;;;6.13;4.30;;;17.00;82.30;;;;;;5094332;28;20200;-79
2022/04/19 13:39:32;;;;;;;5.40;4.20;;;17.10;83.20;;;;;;5149795;22;20234;-78
2022/04/19 13:41:59;;;;;;;6.47;5.87;;;17.00;83.40;;;;;;5117349;27;20189;-78
2022/04/19 13:44:26;;;;;;;3.87;3.40;;;17.10;82.90;;;;;;5128857;27;20259;-78
2022/04/19 13:46:56;;;;;;;7.00;4.30;;;17.20;82.90;;;;;;5115261;27;20591;-79
2022/04/19 13:49:24;;;;;;;5.73;4.50;;;17.10;82.30;;;;;;5124024;27;20264;-79
2022/04/19 13:51:52;;;;;;;5.73;4.30;;;17.20;83.60;;;;;;5132322;27;20231;-78
2022/04/19 13:54:20;;;;;;;6.80;6.10;;;17.10;83.50;;;;;;5120862;27;20195;-79